LHPP/PEV METAR and TAF weather

Enter ICAO airport designator
Station Type Date Time Source
LHPP METAR 2023/02/06 00:15 UTC NOAA

LHPP 060015Z AUTO 03006KT CAVOK M05/M09 Q1035


Station Type Date Time Source
LHPP Decoded METAR 2023/02/06 00:15 UTC NOAA

Pecs / Pogany, Hungary (LHPP) 46-06N 018-14E 203M
Feb 05, 2023 - 07:15 PM EST / 2023.02.06 0015 UTC
Wind: from the NNE (030 degrees) at 7 MPH (6 KT):0
Visibility: greater than 7 mile(s):0
Temperature: 23 F (-5 C)
Windchill: 14 F (-10 C):1
Dew Point: 15 F (-9 C)
Relative Humidity: 73%
Pressure (altimeter): 30.56 in. Hg (1035 hPa)
ob: LHPP 060015Z AUTO 03006KT CAVOK M05/M09 Q1035
cycle: 0

Station Type Date Time Source
LHPP TAF 2017/08/21 15:50 UTC NOAA

TAF LHPP 211700Z 2115/2214 CNL

Example: see airport list